createdAt,value
2023-10-20T00:00:21.243Z,97696.84
2023-10-20T00:03:13.226Z,97696.47
2023-10-20T00:05:45.396Z,97694.20
2023-10-20T00:08:17.467Z,97689.76
2023-10-20T00:10:49.452Z,97690.63
2023-10-20T00:13:22.509Z,97691.77
2023-10-20T00:15:54.553Z,97686.70
2023-10-20T00:18:26.714Z,97676.14
2023-10-20T00:20:59.135Z,97666.38
2023-10-20T00:23:31.114Z,97657.46
2023-10-20T00:26:03.191Z,97651.27
2023-10-20T00:28:35.231Z,97645.36
2023-10-20T00:31:07.310Z,97652.38
2023-10-20T00:33:39.377Z,97657.93
2023-10-20T00:36:11.938Z,97659.95
2023-10-20T00:38:44.404Z,97657.73
2023-10-20T00:41:17.265Z,97655.10
2023-10-20T00:43:49.205Z,97648.88
2023-10-20T00:46:21.494Z,97640.98
2023-10-20T00:48:53.844Z,97628.45
2023-10-20T00:51:26.913Z,97627.55
2023-10-20T00:54:01.471Z,97625.44
2023-10-20T00:56:34.606Z,97614.39
2023-10-20T00:59:06.648Z,97606.38
2023-10-20T01:01:39.287Z,97600.27
2023-10-20T01:04:11.528Z,97597.34
2023-10-20T01:06:44.584Z,97599.86
2023-10-20T01:09:26.904Z,97590.29
2023-10-20T01:12:00.710Z,97582.80
2023-10-20T01:14:32.956Z,97577.94
2023-10-20T01:17:05.597Z,97579.59
2023-10-20T01:19:38.849Z,97575.25
2023-10-20T01:22:10.818Z,97575.55
2023-10-20T01:24:42.786Z,97579.80
2023-10-20T01:27:14.709Z,97585.26
2023-10-20T01:29:46.675Z,97578.39
2023-10-20T01:32:18.624Z,97581.32
2023-10-20T01:34:50.627Z,97581.40
2023-10-20T01:37:22.823Z,97576.81
2023-10-20T01:39:54.766Z,97568.42
2023-10-20T01:42:26.834Z,97558.80
2023-10-20T01:44:58.761Z,97557.97
2023-10-20T01:47:31.136Z,97555.35
2023-10-20T01:50:03.991Z,97555.54
2023-10-20T01:52:36.000Z,97560.70
2023-10-20T01:55:09.211Z,97569.39
2023-10-20T01:57:41.651Z,97577.24
2023-10-20T02:00:15.846Z,97565.20
2023-10-20T02:02:47.828Z,97555.46
2023-10-20T02:05:20.144Z,97552.11
2023-10-20T02:07:52.167Z,97542.49
2023-10-20T02:10:24.206Z,97543.89
2023-10-20T02:12:56.652Z,97542.44
2023-10-20T02:15:28.663Z,97535.98
2023-10-20T02:18:00.867Z,97528.89
2023-10-20T02:20:32.938Z,97536.63
2023-10-20T02:23:04.979Z,97540.87
2023-10-20T02:25:37.073Z,97540.81
2023-10-20T02:28:09.638Z,97537.92
2023-10-20T02:30:42.114Z,97538.21
2023-10-20T02:33:14.194Z,97534.63
2023-10-20T02:35:46.186Z,97532.75
2023-10-20T02:38:18.340Z,97527.87
2023-10-20T02:40:57.514Z,97521.61
2023-10-20T02:43:29.615Z,97515.17
2023-10-20T02:46:02.093Z,97519.12
2023-10-20T02:48:34.901Z,97517.05
2023-10-20T02:51:13.467Z,97520.81
2023-10-20T02:53:46.194Z,97519.08
2023-10-20T02:56:20.340Z,97512.02
2023-10-20T02:58:52.886Z,97501.02
2023-10-20T03:01:26.956Z,97487.39
2023-10-20T03:04:00.131Z,97481.42
2023-10-20T03:06:32.299Z,97480.18
2023-10-20T03:09:04.485Z,97487.48
2023-10-20T03:11:37.096Z,97484.95
2023-10-20T03:14:09.098Z,97482.60
2023-10-20T03:16:44.377Z,97486.40
2023-10-20T03:19:16.705Z,97483.52
2023-10-20T03:21:49.010Z,97481.47
2023-10-20T03:24:20.986Z,97487.29
2023-10-20T03:26:53.003Z,97486.70
2023-10-20T03:29:26.005Z,97488.41
2023-10-20T03:31:59.135Z,97490.16
2023-10-20T03:34:33.298Z,97489.45
2023-10-20T03:37:05.589Z,97486.98
2023-10-20T03:39:37.883Z,97482.48
2023-10-20T03:42:12.551Z,97481.04
2023-10-20T03:44:45.029Z,97476.77
2023-10-20T03:47:18.735Z,97479.97
2023-10-20T03:49:52.074Z,97477.81
2023-10-20T03:52:24.662Z,97479.88
2023-10-20T03:54:57.436Z,97477.95
2023-10-20T03:57:30.688Z,97468.23
2023-10-20T04:00:16.725Z,97469.77
2023-10-20T04:02:53.400Z,97471.10
2023-10-20T04:05:27.328Z,97464.88
2023-10-20T04:07:59.410Z,97463.36
2023-10-20T04:10:31.303Z,97462.63
2023-10-20T04:13:03.796Z,97454.98
2023-10-20T04:15:37.811Z,97455.92
2023-10-20T04:18:10.354Z,97458.94
2023-10-20T04:20:43.317Z,97451.02
2023-10-20T04:23:15.370Z,97457.25
2023-10-20T04:25:54.023Z,97453.77
2023-10-20T04:28:33.921Z,97454.45
2023-10-20T04:31:23.840Z,97451.98
2023-10-20T04:34:26.582Z,97453.23
2023-10-20T04:37:17.179Z,97450.10
2023-10-20T04:40:07.658Z,97450.39
2023-10-20T04:43:18.930Z,97446.58
2023-10-20T04:46:16.531Z,97454.17
2023-10-20T04:49:02.336Z,97451.73
2023-10-20T04:54:46.154Z,97445.07
2023-10-20T04:57:36.043Z,97445.02
2023-10-20T05:00:32.706Z,97447.45
2023-10-20T05:03:31.354Z,97459.27
2023-10-20T05:06:21.306Z,97450.99
2023-10-20T05:08:53.602Z,97438.48
2023-10-20T05:11:25.821Z,97436.04
2023-10-20T05:13:57.897Z,97428.28
2023-10-20T05:16:29.987Z,97422.02
2023-10-20T05:19:04.034Z,97433.36
2023-10-20T05:21:39.625Z,97438.66
2023-10-20T05:24:13.078Z,97430.33
2023-10-20T05:26:48.891Z,97429.26
2023-10-20T05:29:20.900Z,97437.14
2023-10-20T05:31:52.915Z,97443.32
2023-10-20T05:34:24.950Z,97435.00
2023-10-20T05:36:56.910Z,97439.16
2023-10-20T05:39:28.877Z,97450.40
2023-10-20T05:42:02.416Z,97454.89
2023-10-20T05:44:35.897Z,97451.55
2023-10-20T05:47:08.339Z,97448.66
2023-10-20T05:49:40.377Z,97460.89
2023-10-20T05:52:12.412Z,97468.14
2023-10-20T05:54:44.482Z,97465.11
2023-10-20T05:57:17.299Z,97459.72
2023-10-20T05:59:49.368Z,97458.12
2023-10-20T06:02:21.597Z,97455.23
2023-10-20T06:04:53.815Z,97453.05
2023-10-20T06:07:25.955Z,97454.48
2023-10-20T06:09:58.335Z,97454.99
2023-10-20T06:12:30.568Z,97453.45
2023-10-20T06:15:03.195Z,97447.71
2023-10-20T06:17:37.165Z,97441.40
2023-10-20T06:20:12.086Z,97429.25
2023-10-20T06:22:44.401Z,97424.83
2023-10-20T06:25:16.661Z,97424.47
2023-10-20T06:27:48.752Z,97426.34
2023-10-20T06:30:24.429Z,97430.62
2023-10-20T06:33:15.795Z,97427.19
2023-10-20T06:35:53.358Z,97422.83
2023-10-20T06:38:32.008Z,97413.11
2023-10-20T06:41:05.290Z,97404.23
2023-10-20T06:43:37.275Z,97403.84
2023-10-20T06:46:09.669Z,97400.56
2023-10-20T06:48:41.849Z,97389.91
2023-10-20T06:51:13.801Z,97388.13
2023-10-20T06:53:45.958Z,97380.10
2023-10-20T06:56:21.007Z,97382.81
2023-10-20T06:58:55.953Z,97391.53
2023-10-20T07:01:28.402Z,97387.61
2023-10-20T07:04:01.092Z,97383.02
2023-10-20T07:06:33.094Z,97386.13
2023-10-20T07:09:12.938Z,97382.62
2023-10-20T07:11:45.986Z,97374.80
2023-10-20T07:14:18.355Z,97374.22
2023-10-20T07:16:50.397Z,97375.06
2023-10-20T07:19:22.383Z,97372.23
2023-10-20T07:21:55.385Z,97370.67
2023-10-20T07:24:28.110Z,97370.84
2023-10-20T07:27:00.684Z,97366.48
2023-10-20T07:29:33.171Z,97361.98
2023-10-20T07:32:06.208Z,97362.02
2023-10-20T07:34:38.665Z,97358.45
2023-10-20T07:37:11.984Z,97363.61
2023-10-20T07:39:44.047Z,97364.09
2023-10-20T07:42:17.674Z,97364.03
2023-10-20T07:44:50.107Z,97360.91
2023-10-20T07:47:22.154Z,97353.27
2023-10-20T07:49:54.185Z,97350.10
2023-10-20T07:52:26.704Z,97345.91
2023-10-20T07:54:58.764Z,97344.40
2023-10-20T07:57:30.860Z,97335.30
2023-10-20T08:00:03.300Z,97336.45
2023-10-20T08:02:44.898Z,97335.85
2023-10-20T08:05:17.897Z,97339.81
2023-10-20T08:07:50.856Z,97338.20
2023-10-20T08:10:23.727Z,97336.70
2023-10-20T08:12:55.984Z,97337.80
2023-10-20T08:15:29.412Z,97333.30
2023-10-20T08:18:01.588Z,97331.68
2023-10-20T08:20:33.783Z,97330.85
2023-10-20T08:23:06.481Z,97321.80
2023-10-20T08:25:42.334Z,97307.65
2023-10-20T08:28:14.409Z,97316.45
2023-10-20T08:30:46.497Z,97304.80
2023-10-20T08:33:18.699Z,97294.77
2023-10-20T08:35:50.965Z,97295.91
2023-10-20T08:38:23.197Z,97294.76
2023-10-20T08:41:11.929Z,97266.80
2023-10-20T08:43:47.049Z,97247.88
2023-10-20T08:46:20.467Z,97245.63
2023-10-20T08:48:52.631Z,97251.05
2023-10-20T08:51:25.778Z,97257.04
2023-10-20T08:53:58.774Z,97254.54
2023-10-20T08:56:31.006Z,97255.60
2023-10-20T08:59:03.060Z,97248.46
2023-10-20T09:01:36.208Z,97248.60
2023-10-20T09:04:08.660Z,97237.27
2023-10-20T09:06:41.111Z,97237.21
2023-10-20T09:09:13.086Z,97242.60
2023-10-20T09:11:46.121Z,97243.78
2023-10-20T09:14:18.487Z,97234.75
2023-10-20T09:16:52.912Z,97233.77
2023-10-20T09:19:24.967Z,97221.23
2023-10-20T09:21:59.070Z,97216.38
2023-10-20T09:24:33.618Z,97212.44
2023-10-20T09:27:06.421Z,97209.65
2023-10-20T09:29:40.391Z,97212.46
2023-10-20T09:34:44.880Z,97208.05
2023-10-20T09:37:18.767Z,97203.40
2023-10-20T09:39:53.997Z,97194.60
2023-10-20T09:42:28.440Z,97196.09
2023-10-20T09:45:12.851Z,97194.73
2023-10-20T09:47:48.204Z,97189.34
2023-10-20T09:50:21.115Z,97182.55
2023-10-20T09:52:54.629Z,97187.08
2023-10-20T09:55:27.265Z,97183.86
2023-10-20T09:58:02.012Z,97187.21
2023-10-20T10:00:36.693Z,97186.95
2023-10-20T10:03:10.223Z,97186.92
2023-10-20T10:05:45.206Z,97182.37
2023-10-20T10:08:23.300Z,97182.53
2023-10-20T10:10:55.478Z,97180.05
2023-10-20T10:13:37.372Z,97179.59
2023-10-20T10:16:21.391Z,97182.42
2023-10-20T10:18:55.977Z,97189.25
2023-10-20T10:21:32.626Z,97185.80
2023-10-20T10:24:19.911Z,97193.84
2023-10-20T10:27:01.392Z,97188.55
2023-10-20T10:29:54.935Z,97182.59
2023-10-20T10:32:29.421Z,97182.00
2023-10-20T10:35:03.077Z,97187.36
2023-10-20T10:37:36.936Z,97180.39
2023-10-20T10:40:15.425Z,97172.45
2023-10-20T10:42:49.053Z,97174.28
2023-10-20T10:45:28.796Z,97165.77
2023-10-20T10:48:10.048Z,97162.48
2023-10-20T10:50:44.198Z,97162.52
2023-10-20T10:53:17.343Z,97168.57
2023-10-20T10:55:49.776Z,97170.02
2023-10-20T10:58:21.849Z,97161.32
2023-10-20T11:00:55.894Z,97160.36
2023-10-20T11:03:28.734Z,97153.06
2023-10-20T11:06:01.377Z,97148.77
2023-10-20T11:08:35.324Z,97136.79
2023-10-20T11:11:07.528Z,97139.30
2023-10-20T11:13:41.529Z,97137.85
2023-10-20T11:16:15.493Z,97133.39
2023-10-20T11:18:50.426Z,97128.34
2023-10-20T11:21:22.509Z,97124.91
2023-10-20T11:23:57.923Z,97114.38
2023-10-20T11:26:30.579Z,97110.71
2023-10-20T11:29:05.335Z,97105.58
2023-10-20T11:31:38.491Z,97099.14
2023-10-20T11:34:10.540Z,97096.84
2023-10-20T11:36:42.516Z,97099.13
2023-10-20T11:39:16.654Z,97092.21
2023-10-20T11:41:48.751Z,97089.14
2023-10-20T11:44:21.872Z,97092.77
2023-10-20T11:46:55.265Z,97093.02
2023-10-20T11:49:27.954Z,97089.91
2023-10-20T11:52:00.401Z,97092.36
2023-10-20T11:54:33.153Z,97095.33
2023-10-20T11:57:05.773Z,97096.18
2023-10-20T11:59:37.799Z,97101.00
2023-10-20T12:02:10.070Z,97098.03
2023-10-20T12:04:42.175Z,97095.63
2023-10-20T12:07:14.213Z,97093.10
2023-10-20T12:09:46.151Z,97085.87
2023-10-20T12:12:18.439Z,97074.52
2023-10-20T12:14:50.470Z,97075.03
2023-10-20T12:17:22.495Z,97066.55
2023-10-20T12:19:54.730Z,97052.87
2023-10-20T12:22:28.001Z,97047.50
2023-10-20T12:25:00.213Z,97041.02
2023-10-20T12:27:32.598Z,97039.71
2023-10-20T12:30:05.055Z,97034.09
2023-10-20T12:32:38.471Z,97032.20
2023-10-20T12:35:12.416Z,97030.45
2023-10-20T12:37:44.587Z,97029.90
2023-10-20T12:40:17.400Z,97027.27
2023-10-20T12:42:50.652Z,97027.39
2023-10-20T12:45:22.820Z,97023.61
2023-10-20T12:47:57.144Z,97021.23
2023-10-20T12:50:34.088Z,97021.24
2023-10-20T12:53:08.566Z,97021.90
2023-10-20T12:55:40.712Z,97026.27
2023-10-20T12:58:13.698Z,97031.33
2023-10-20T13:00:46.522Z,97029.93
2023-10-20T13:03:19.800Z,97025.80
2023-10-20T13:05:52.098Z,97026.06
2023-10-20T13:08:25.459Z,97028.59
2023-10-20T13:10:57.981Z,97022.96
2023-10-20T13:13:32.476Z,97017.52
2023-10-20T13:16:05.220Z,97011.65
2023-10-20T13:18:38.155Z,97009.05
2023-10-20T13:21:10.284Z,97006.46
2023-10-20T13:23:42.425Z,97008.61
2023-10-20T13:26:14.509Z,97003.31
2023-10-20T13:28:46.546Z,97005.34
2023-10-20T13:31:23.038Z,97005.73
2023-10-20T13:33:56.422Z,97001.94
2023-10-20T13:36:29.147Z,97004.89
2023-10-20T13:39:01.268Z,97008.63
2023-10-20T13:41:33.558Z,97018.82
2023-10-20T13:44:07.192Z,97021.13
2023-10-20T13:46:39.410Z,97021.38
2023-10-20T13:49:12.165Z,97022.34
2023-10-20T13:51:44.423Z,97024.39
2023-10-20T13:54:16.915Z,97021.50
2023-10-20T13:56:49.401Z,97015.83
2023-10-20T13:59:21.586Z,97015.59
2023-10-20T14:01:53.814Z,97012.27
2023-10-20T14:04:26.779Z,97011.70
2023-10-20T14:06:59.243Z,97001.83
2023-10-20T14:09:31.828Z,96993.85
2023-10-20T14:12:04.410Z,96997.02
2023-10-20T14:14:37.505Z,97004.77
2023-10-20T14:17:09.657Z,97004.90
2023-10-20T14:19:41.758Z,97000.02
2023-10-20T14:22:13.949Z,97004.59
2023-10-20T14:24:46.067Z,97013.91
2023-10-20T14:27:18.197Z,97014.02
2023-10-20T14:29:52.858Z,97020.68
2023-10-20T14:32:25.071Z,97019.23
2023-10-20T14:35:00.512Z,97018.19
2023-10-20T14:37:33.026Z,97010.38
2023-10-20T14:40:05.917Z,97001.35
2023-10-20T14:42:38.176Z,97005.41
2023-10-20T14:45:11.998Z,97002.46
2023-10-20T14:47:44.215Z,96997.17
2023-10-20T14:50:17.044Z,97001.25
2023-10-20T14:52:49.205Z,97003.36
2023-10-20T14:55:21.480Z,97004.98
2023-10-20T14:57:53.617Z,97011.75
2023-10-20T15:00:26.665Z,97006.38
2023-10-20T15:02:58.924Z,97007.90
2023-10-20T15:05:31.432Z,97003.86
2023-10-20T15:08:04.184Z,97019.80
2023-10-20T15:10:36.825Z,97028.52
2023-10-20T15:13:10.032Z,97022.71
2023-10-20T15:15:42.214Z,97024.83
2023-10-20T15:18:14.419Z,97019.35
2023-10-20T15:20:47.066Z,97017.36
2023-10-20T15:23:19.213Z,97017.30
2023-10-20T15:25:51.531Z,97017.30
2023-10-20T15:28:23.758Z,97008.67
2023-10-20T15:30:56.197Z,97006.98
2023-10-20T15:33:28.493Z,97010.61
2023-10-20T15:36:00.812Z,97004.00
2023-10-20T15:38:33.573Z,97009.11
2023-10-20T15:41:06.081Z,97012.12
2023-10-20T15:43:38.213Z,97012.99
2023-10-20T15:46:10.863Z,97018.90
2023-10-20T15:48:43.122Z,97022.50
2023-10-20T15:51:17.265Z,97029.66
2023-10-20T15:53:51.309Z,97028.84
2023-10-20T15:56:23.581Z,97026.51
2023-10-20T15:58:55.750Z,97025.69
2023-10-20T16:01:29.533Z,97020.77
2023-10-20T16:04:02.039Z,97014.59
2023-10-20T16:06:34.340Z,97013.05
2023-10-20T16:09:08.467Z,97013.02
2023-10-20T16:11:42.116Z,97009.82
2023-10-20T16:14:14.341Z,97012.65
2023-10-20T16:16:47.006Z,97017.58
2023-10-20T16:19:20.808Z,97017.50
2023-10-20T16:21:52.866Z,97012.52
2023-10-20T16:24:24.929Z,97007.71
2023-10-20T16:26:59.514Z,97019.08
2023-10-20T16:29:32.631Z,97020.75
2023-10-20T16:32:04.738Z,97021.95
2023-10-20T16:34:37.245Z,97022.79
2023-10-20T16:37:09.559Z,97022.95
2023-10-20T16:39:43.289Z,97016.13
2023-10-20T16:42:15.361Z,97017.48
2023-10-20T16:44:47.396Z,97014.83
2023-10-20T16:47:19.794Z,97018.44
2023-10-20T16:49:54.184Z,97022.31
2023-10-20T16:52:26.319Z,97019.16
2023-10-20T16:54:59.492Z,97017.88
2023-10-20T16:57:31.515Z,97028.89
2023-10-20T17:00:06.973Z,97033.88
2023-10-20T17:02:39.302Z,97029.85
2023-10-20T17:05:12.115Z,97032.51
2023-10-20T17:07:44.316Z,97033.58
2023-10-20T17:10:17.499Z,97035.90
2023-10-20T17:12:50.692Z,97031.59
2023-10-20T17:15:22.817Z,97030.91
2023-10-20T17:17:54.958Z,97031.80
2023-10-20T17:20:27.477Z,97033.89
2023-10-20T17:22:59.623Z,97037.51
2023-10-20T17:25:31.805Z,97042.48
2023-10-20T17:28:04.049Z,97046.81
2023-10-20T17:30:39.306Z,97057.76
2023-10-20T17:33:11.516Z,97061.85
2023-10-20T17:35:43.972Z,97064.40
2023-10-20T17:38:16.741Z,97069.21
2023-10-20T17:40:49.082Z,97067.84
2023-10-20T17:43:21.194Z,97076.12
2023-10-20T17:45:53.708Z,97079.48
2023-10-20T17:48:26.530Z,97077.25
2023-10-20T17:51:02.395Z,97076.27
2023-10-20T17:53:35.285Z,97077.40
2023-10-20T17:56:08.004Z,97073.27
2023-10-20T17:58:40.211Z,97069.30
2023-10-20T18:01:15.425Z,97063.16
2023-10-20T18:03:47.815Z,97066.17
2023-10-20T18:06:22.121Z,97061.86
2023-10-20T18:08:54.867Z,97064.59
2023-10-20T18:11:27.245Z,97068.16
2023-10-20T18:13:59.759Z,97068.55
2023-10-20T18:16:33.494Z,97068.08
2023-10-20T18:19:08.306Z,97065.91
2023-10-20T18:21:41.353Z,97061.91
2023-10-20T18:24:13.708Z,97061.94
2023-10-20T18:26:47.340Z,97065.39
2023-10-20T18:29:19.703Z,97064.80
2023-10-20T18:31:51.898Z,97064.91
2023-10-20T18:34:25.564Z,97064.67
2023-10-20T18:36:58.296Z,97062.77
2023-10-20T18:39:30.519Z,97065.59
2023-10-20T18:42:05.735Z,97072.72
2023-10-20T18:44:38.123Z,97069.77
2023-10-20T18:47:11.542Z,97075.86
2023-10-20T18:49:43.680Z,97078.89
2023-10-20T18:52:15.956Z,97087.73
2023-10-20T18:54:48.181Z,97087.92
2023-10-20T18:57:20.416Z,97087.23
2023-10-20T18:59:52.571Z,97090.72
2023-10-20T19:02:24.939Z,97094.21
2023-10-20T19:04:57.456Z,97094.04
2023-10-20T19:07:29.781Z,97095.90
2023-10-20T19:10:01.952Z,97092.58
2023-10-20T19:12:34.129Z,97088.71
2023-10-20T19:15:07.354Z,97085.56
2023-10-20T19:17:39.622Z,97086.80
2023-10-20T19:20:15.049Z,97090.71
2023-10-20T19:22:50.430Z,97092.64
2023-10-20T19:25:22.553Z,97094.86
2023-10-20T19:27:54.749Z,97099.91
2023-10-20T19:30:27.708Z,97102.52
2023-10-20T19:33:00.213Z,97098.71
2023-10-20T19:35:34.653Z,97097.49
2023-10-20T19:38:07.371Z,97093.38
2023-10-20T19:40:39.606Z,97098.89
2023-10-20T19:43:11.820Z,97095.70
2023-10-20T19:45:44.033Z,97093.08
2023-10-20T19:48:16.235Z,97093.55
2023-10-20T19:50:48.576Z,97093.94
2023-10-20T19:53:20.797Z,97095.91
2023-10-20T19:55:53.049Z,97101.58
2023-10-20T19:58:25.365Z,97096.89
2023-10-20T20:00:59.408Z,97104.14
2023-10-20T20:03:32.434Z,97111.05
2023-10-20T20:06:13.459Z,97123.20
2023-10-20T20:08:46.784Z,97121.83
2023-10-20T20:11:19.072Z,97126.45
2023-10-20T20:13:51.553Z,97131.08
2023-10-20T20:16:24.528Z,97135.45
2023-10-20T20:18:56.698Z,97129.33
2023-10-20T20:21:28.869Z,97131.32
2023-10-20T20:24:01.091Z,97139.18
2023-10-20T20:26:34.764Z,97132.39
2023-10-20T20:29:06.933Z,97132.84
2023-10-20T20:31:39.279Z,97127.48
2023-10-20T20:34:11.943Z,97123.88
2023-10-20T20:36:44.076Z,97125.76
2023-10-20T20:39:16.364Z,97126.02
2023-10-20T20:41:48.701Z,97129.39
2023-10-20T20:44:21.202Z,97128.93
2023-10-20T20:46:53.373Z,97128.95
2023-10-20T20:49:25.613Z,97130.80
2023-10-20T20:51:57.745Z,97129.67
2023-10-20T20:54:30.851Z,97129.98
2023-10-20T20:57:03.030Z,97132.77
2023-10-20T20:59:35.383Z,97133.37
2023-10-20T21:02:08.149Z,97133.23
2023-10-20T21:04:40.416Z,97131.05
2023-10-20T21:07:12.792Z,97126.32
2023-10-20T21:09:45.477Z,97123.19
2023-10-20T21:12:17.683Z,97120.76
2023-10-20T21:14:50.447Z,97115.79
2023-10-20T21:17:22.580Z,97115.21
2023-10-20T21:19:54.803Z,97116.27
2023-10-20T21:22:27.033Z,97114.63
2023-10-20T21:25:00.296Z,97114.48
2023-10-20T21:27:33.186Z,97117.11
2023-10-20T21:30:07.232Z,97119.05
2023-10-20T21:32:39.499Z,97120.91
2023-10-20T21:35:12.072Z,97120.28
2023-10-20T21:37:44.292Z,97117.83
2023-10-20T21:40:16.922Z,97119.45
2023-10-20T21:42:49.074Z,97117.33
2023-10-20T21:45:21.203Z,97121.91
2023-10-20T21:47:53.708Z,97132.13
2023-10-20T21:50:26.202Z,97131.92
2023-10-20T21:52:58.488Z,97135.77
2023-10-20T21:55:30.912Z,97142.30
2023-10-20T21:58:03.032Z,97148.89
2023-10-20T22:00:37.912Z,97146.80
2023-10-20T22:03:10.234Z,97151.09
2023-10-20T22:05:42.567Z,97153.73
2023-10-20T22:08:14.785Z,97155.58
2023-10-20T22:10:47.294Z,97164.08
2023-10-20T22:13:19.445Z,97165.56
2023-10-20T22:15:51.654Z,97172.30
2023-10-20T22:18:24.019Z,97173.87
2023-10-20T22:20:56.326Z,97173.86
2023-10-20T22:23:29.184Z,97179.07
2023-10-20T22:26:01.251Z,97177.72
2023-10-20T22:28:33.184Z,97181.92
2023-10-20T22:31:05.208Z,97187.84
2023-10-20T22:33:37.304Z,97192.60
2023-10-20T22:36:10.099Z,97193.45
2023-10-20T22:38:42.212Z,97195.73
2023-10-20T22:41:14.618Z,97191.57
2023-10-20T22:43:47.001Z,97192.95
2023-10-20T22:46:19.032Z,97199.41
2023-10-20T22:48:51.020Z,97205.05
2023-10-20T22:51:23.012Z,97207.52
2023-10-20T22:53:55.084Z,97212.79
2023-10-20T22:56:27.112Z,97220.95
2023-10-20T22:58:59.217Z,97231.61
2023-10-20T23:01:31.228Z,97237.28
2023-10-20T23:04:03.458Z,97247.32
2023-10-20T23:06:35.899Z,97246.86
2023-10-20T23:09:08.002Z,97253.83
2023-10-20T23:11:40.271Z,97257.82
2023-10-20T23:14:12.265Z,97265.40
2023-10-20T23:16:44.722Z,97270.20
2023-10-20T23:19:16.880Z,97269.98
2023-10-20T23:21:48.856Z,97268.44
2023-10-20T23:24:20.815Z,97266.67
2023-10-20T23:26:52.887Z,97268.05
2023-10-20T23:29:25.561Z,97273.50
2023-10-20T23:31:57.574Z,97276.60
2023-10-20T23:34:29.633Z,97279.20
2023-10-20T23:37:04.160Z,97283.32
2023-10-20T23:39:37.343Z,97285.38
2023-10-20T23:42:09.912Z,97291.14
2023-10-20T23:44:41.970Z,97293.38
2023-10-20T23:47:14.069Z,97287.73
2023-10-20T23:49:46.035Z,97290.96
2023-10-20T23:52:18.026Z,97291.00
2023-10-20T23:54:52.749Z,97294.05
2023-10-20T23:57:24.721Z,97298.38
2023-10-20T23:59:56.905Z,97306.25
